N804QS KMOX-CYHZ
Flight info
| Callsign | N804QS |
|---|---|
| Flight time | N/A |
| Altitude | 45000 |
| Route | WELOK Q812 AHPAH Q140 HANKK Q935 AUDIL Q84 PUPPY Q822 AJJAY ALLEX FUNDY5 |
| Aircraft | C700/M-SBDGHM1RWXY/LB2 |
Departure
| Time | 2026-05-01 15:00 |
|---|---|
| Airport | Morris Municipal Airport Charlie Schmidt Field (KMOX) |
Arrival
| Time | N/A |
|---|---|
| Airport | Halifax / Stanfield International Airport (CYHZ) |
| Time | Latitude | Longitude | Altitude | Speed | Heading |
|---|---|---|---|---|---|
| 2026-05-01 14:43 | 45.57031 | -95.96786 | 1135 ft | 0 kts | 357° |
| 2026-05-01 14:54 | 45.57034 | -95.96785 | 1135 ft | 2 kts | 14° |
| 2026-05-01 14:54 | 45.57038 | -95.96777 | 1139 ft | 0 kts | 63° |
| 2026-05-01 14:55 | 45.57038 | -95.96773 | 1139 ft | 2 kts | 82° |
| 2026-05-01 14:55 | 45.57027 | -95.96773 | 1135 ft | 4 kts | 229° |
| 2026-05-01 14:55 | 45.57024 | -95.96836 | 1135 ft | 8 kts | 270° |
| 2026-05-01 14:55 | 45.56986 | -95.96892 | 1135 ft | 10 kts | 216° |
| 2026-05-01 14:56 | 45.56941 | -95.96978 | 1135 ft | 12 kts | 234° |
| 2026-05-01 14:56 | 45.56872 | -95.97038 | 1136 ft | 14 kts | 140° |
| 2026-05-01 14:56 | 45.56786 | -95.96945 | 1135 ft | 18 kts | 145° |
| 2026-05-01 14:56 | 45.56680 | -95.96835 | 1135 ft | 20 kts | 143° |
| 2026-05-01 14:57 | 45.56564 | -95.96715 | 1136 ft | 22 kts | 144° |
| 2026-05-01 14:57 | 45.56312 | -95.96455 | 1137 ft | 22 kts | 144° |
| 2026-05-01 14:57 | 45.56182 | -95.96321 | 1136 ft | 24 kts | 144° |
| 2026-05-01 14:58 | 45.56076 | -95.96212 | 1133 ft | 16 kts | 143° |
| 2026-05-01 14:58 | 45.56039 | -95.96141 | 1136 ft | 6 kts | 99° |
| 2026-05-01 14:58 | 45.56032 | -95.96139 | 1132 ft | 1 kts | 198° |
| 2026-05-01 14:58 | 45.56028 | -95.96159 | 1132 ft | 2 kts | 287° |
| 2026-05-01 14:59 | 45.56041 | -95.96176 | 1132 ft | 0 kts | 324° |
| 2026-05-01 14:59 | 45.56266 | -95.96409 | 1137 ft | 84 kts | 324° |
| 2026-05-01 14:59 | 45.56961 | -95.97116 | 1233 ft | 153 kts | 324° |
| 2026-05-01 15:00 | 45.58753 | -95.99018 | 3240 ft | 170 kts | 322° |
| 2026-05-01 15:00 | 45.59703 | -96.00076 | 4358 ft | 184 kts | 324° |
| 2026-05-01 15:00 | 45.60856 | -96.01125 | 5244 ft | 210 kts | 343° |
| 2026-05-01 15:01 | 45.62380 | -96.01040 | 6216 ft | 238 kts | 18° |
| 2026-05-01 15:01 | 45.63777 | -95.99596 | 7303 ft | 260 kts | 51° |
| 2026-05-01 15:01 | 45.64397 | -95.97135 | 8664 ft | 272 kts | 78° |
| 2026-05-01 15:01 | 45.64529 | -95.94387 | 9994 ft | 282 kts | 86° |
| 2026-05-01 15:02 | 45.64543 | -95.91479 | 11186 ft | 306 kts | 86° |
| 2026-05-01 15:02 | 45.64592 | -95.89265 | 11947 ft | 326 kts | 84° |
| 2026-05-01 15:02 | 45.64772 | -95.84886 | 13441 ft | 352 kts | 83° |
| 2026-05-01 15:02 | 45.64903 | -95.81339 | 15025 ft | 359 kts | 84° |
| 2026-05-01 15:03 | 45.65012 | -95.77738 | 16366 ft | 368 kts | 85° |
| 2026-05-01 15:03 | 45.65127 | -95.74049 | 17573 ft | 376 kts | 84° |
| 2026-05-01 15:03 | 45.65254 | -95.70304 | 18623 ft | 384 kts | 84° |
| 2026-05-01 15:03 | 45.65385 | -95.66421 | 19570 ft | 391 kts | 85° |
| 2026-05-01 15:04 | 45.65509 | -95.62506 | 20420 ft | 398 kts | 85° |
| 2026-05-01 15:04 | 45.65633 | -95.58522 | 21221 ft | 404 kts | 85° |
| 2026-05-01 15:04 | 45.65761 | -95.54503 | 22003 ft | 409 kts | 85° |
| 2026-05-01 15:04 | 45.65890 | -95.50399 | 22795 ft | 414 kts | 85° |
| 2026-05-01 15:05 | 45.66017 | -95.46256 | 23539 ft | 420 kts | 85° |
| 2026-05-01 15:05 | 45.66143 | -95.42070 | 24275 ft | 425 kts | 85° |
| 2026-05-01 15:05 | 45.66272 | -95.37804 | 24989 ft | 431 kts | 86° |
| 2026-05-01 15:05 | 45.66399 | -95.33515 | 25736 ft | 434 kts | 86° |
| 2026-05-01 15:06 | 45.66523 | -95.29232 | 26401 ft | 439 kts | 86° |
| 2026-05-01 15:06 | 45.66650 | -95.24850 | 27065 ft | 443 kts | 86° |
| 2026-05-01 15:06 | 45.66779 | -95.20373 | 27719 ft | 447 kts | 86° |
| 2026-05-01 15:06 | 45.66903 | -95.15969 | 28322 ft | 451 kts | 86° |
| 2026-05-01 15:07 | 45.67028 | -95.11459 | 28916 ft | 455 kts | 86° |
| 2026-05-01 15:07 | 45.67151 | -95.06935 | 29492 ft | 459 kts | 86° |
| 2026-05-01 15:07 | 45.67274 | -95.02352 | 30066 ft | 463 kts | 86° |
| 2026-05-01 15:07 | 45.67397 | -94.97725 | 30600 ft | 467 kts | 86° |
| 2026-05-01 15:08 | 45.67520 | -94.93067 | 31065 ft | 472 kts | 86° |
| 2026-05-01 15:08 | 45.67640 | -94.88391 | 31746 ft | 471 kts | 86° |
| 2026-05-01 15:08 | 45.67758 | -94.83691 | 32387 ft | 471 kts | 86° |
| 2026-05-01 15:08 | 45.67874 | -94.79043 | 33066 ft | 470 kts | 86° |
| 2026-05-01 15:09 | 45.67988 | -94.74358 | 33638 ft | 471 kts | 86° |
| 2026-05-01 15:09 | 45.68102 | -94.69672 | 34240 ft | 472 kts | 86° |
| 2026-05-01 15:09 | 45.68213 | -94.64988 | 34817 ft | 472 kts | 86° |
| 2026-05-01 15:09 | 45.68321 | -94.60294 | 35368 ft | 473 kts | 86° |
| 2026-05-01 15:10 | 45.68429 | -94.55571 | 35904 ft | 474 kts | 86° |
| 2026-05-01 15:10 | 45.68640 | -94.46126 | 36883 ft | 477 kts | 86° |
| 2026-05-01 15:10 | 45.68741 | -94.41386 | 37430 ft | 475 kts | 86° |
| 2026-05-01 15:11 | 45.68842 | -94.36686 | 37913 ft | 475 kts | 86° |
| 2026-05-01 15:11 | 45.69009 | -94.27228 | 38686 ft | 477 kts | 89° |
| 2026-05-01 15:11 | 45.68656 | -94.22511 | 38997 ft | 481 kts | 98° |
| 2026-05-01 15:12 | 45.68042 | -94.17808 | 39354 ft | 482 kts | 99° |
| 2026-05-01 15:12 | 45.66831 | -94.08371 | 40107 ft | 483 kts | 99° |
| 2026-05-01 15:12 | 45.66225 | -94.03652 | 40450 ft | 483 kts | 99° |
| 2026-05-01 15:13 | 45.64370 | -93.89441 | 41416 ft | 485 kts | 99° |
| 2026-05-01 15:14 | 45.63125 | -93.79947 | 41980 ft | 488 kts | 99° |
| 2026-05-01 15:14 | 45.62496 | -93.75190 | 42269 ft | 488 kts | 99° |
| 2026-05-01 15:14 | 45.61234 | -93.65662 | 42793 ft | 489 kts | 99° |
| 2026-05-01 15:15 | 45.59955 | -93.56086 | 43264 ft | 490 kts | 99° |
| 2026-05-01 15:15 | 45.58668 | -93.46505 | 43692 ft | 491 kts | 99° |
| 2026-05-01 15:16 | 45.57375 | -93.36946 | 44080 ft | 492 kts | 99° |
| 2026-05-01 15:16 | 45.56076 | -93.27409 | 44450 ft | 493 kts | 100° |
| 2026-05-01 15:17 | 45.54760 | -93.17806 | 44826 ft | 493 kts | 100° |
| 2026-05-01 15:18 | 45.52771 | -93.03418 | 45166 ft | 496 kts | 100° |
| 2026-05-01 15:19 | 45.50074 | -92.84121 | 45169 ft | 493 kts | 101° |
| 2026-05-01 15:19 | 45.48055 | -92.69843 | 45174 ft | 488 kts | 101° |
| 2026-05-01 15:20 | 45.46025 | -92.55615 | 45180 ft | 490 kts | 101° |
| 2026-05-01 15:21 | 45.44651 | -92.46065 | 45181 ft | 492 kts | 101° |
| 2026-05-01 15:21 | 45.43270 | -92.36523 | 45185 ft | 493 kts | 101° |
| 2026-05-01 15:22 | 45.41175 | -92.22157 | 45159 ft | 492 kts | 101° |
| 2026-05-01 15:22 | 45.39774 | -92.12628 | 45157 ft | 491 kts | 101° |
| 2026-05-01 15:23 | 45.38381 | -92.03213 | 45154 ft | 489 kts | 101° |
| 2026-05-01 15:23 | 45.36966 | -91.93702 | 45158 ft | 495 kts | 101° |
| 2026-05-01 15:24 | 45.35524 | -91.84069 | 45164 ft | 502 kts | 101° |
| 2026-05-01 15:24 | 45.34052 | -91.74297 | 45164 ft | 508 kts | 102° |
| 2026-05-01 15:25 | 45.32565 | -91.64489 | 45148 ft | 506 kts | 102° |
| 2026-05-01 15:25 | 45.31082 | -91.54765 | 45143 ft | 503 kts | 102° |
| 2026-05-01 15:26 | 45.29595 | -91.45076 | 45139 ft | 501 kts | 102° |
| 2026-05-01 15:26 | 45.28106 | -91.35427 | 45138 ft | 501 kts | 102° |
| 2026-05-01 15:27 | 45.26602 | -91.25739 | 45140 ft | 504 kts | 102° |
| 2026-05-01 15:28 | 45.24322 | -91.11164 | 45141 ft | 499 kts | 102° |
| 2026-05-01 15:28 | 45.22818 | -91.01626 | 45127 ft | 489 kts | 102° |
| 2026-05-01 15:29 | 45.20589 | -90.87579 | 45128 ft | 489 kts | 102° |
| 2026-05-01 15:30 | 45.17544 | -90.68587 | 45123 ft | 498 kts | 102° |
| 2026-05-01 15:31 | 45.12922 | -90.40166 | 45104 ft | 491 kts | 103° |
| 2026-05-01 15:32 | 45.09807 | -90.21274 | 45108 ft | 494 kts | 103° |
| 2026-05-01 15:34 | 45.05039 | -89.92753 | 45108 ft | 497 kts | 103° |